sensor_id;sensor_type;location;lat;lon;timestamp;P1;durP1;ratioP1;P2;durP2;ratioP2
25946;SDS011;13745;51.470;9.894;2023-06-22T00:01:22;14.30;;;11.85;;
25946;SDS011;13745;51.470;9.894;2023-06-22T00:04:07;20.10;;;12.57;;
25946;SDS011;13745;51.470;9.894;2023-06-22T00:06:52;21.55;;;11.88;;
25946;SDS011;13745;51.470;9.894;2023-06-22T00:09:37;16.05;;;12.18;;
25946;SDS011;13745;51.470;9.894;2023-06-22T00:12:23;14.85;;;12.18;;
25946;SDS011;13745;51.470;9.894;2023-06-22T00:15:08;15.25;;;11.68;;
25946;SDS011;13745;51.470;9.894;2023-06-22T00:17:54;20.60;;;12.63;;
25946;SDS011;13745;51.470;9.894;2023-06-22T00:20:41;16.92;;;13.15;;
25946;SDS011;13745;51.470;9.894;2023-06-22T00:23:26;23.40;;;11.60;;
25946;SDS011;13745;51.470;9.894;2023-06-22T00:26:12;18.13;;;12.43;;
25946;SDS011;13745;51.470;9.894;2023-06-22T00:28:59;21.30;;;12.70;;
25946;SDS011;13745;51.470;9.894;2023-06-22T00:31:44;15.93;;;12.10;;
25946;SDS011;13745;51.470;9.894;2023-06-22T00:34:29;13.32;;;11.27;;
25946;SDS011;13745;51.470;9.894;2023-06-22T00:37:14;15.02;;;11.43;;
25946;SDS011;13745;51.470;9.894;2023-06-22T00:39:59;13.05;;;11.20;;
25946;SDS011;13745;51.470;9.894;2023-06-22T00:42:44;17.45;;;12.13;;
25946;SDS011;13745;51.470;9.894;2023-06-22T00:45:30;20.45;;;11.68;;
25946;SDS011;13745;51.470;9.894;2023-06-22T00:48:15;18.63;;;11.45;;
25946;SDS011;13745;51.470;9.894;2023-06-22T00:51:01;16.77;;;11.25;;
25946;SDS011;13745;51.470;9.894;2023-06-22T00:53:47;15.55;;;10.77;;
25946;SDS011;13745;51.470;9.894;2023-06-22T00:56:32;20.90;;;12.50;;
25946;SDS011;13745;51.470;9.894;2023-06-22T00:59:21;22.42;;;12.25;;
25946;SDS011;13745;51.470;9.894;2023-06-22T01:02:08;20.92;;;12.52;;
25946;SDS011;13745;51.470;9.894;2023-06-22T01:04:53;15.25;;;11.90;;
25946;SDS011;13745;51.470;9.894;2023-06-22T01:07:39;17.65;;;11.30;;
25946;SDS011;13745;51.470;9.894;2023-06-22T01:10:31;17.30;;;11.85;;
25946;SDS011;13745;51.470;9.894;2023-06-22T01:13:25;18.27;;;11.67;;
25946;SDS011;13745;51.470;9.894;2023-06-22T01:16:15;15.43;;;11.13;;
25946;SDS011;13745;51.470;9.894;2023-06-22T01:19:08;16.73;;;11.50;;
25946;SDS011;13745;51.470;9.894;2023-06-22T01:22:03;18.67;;;11.15;;
25946;SDS011;13745;51.470;9.894;2023-06-22T01:25:00;19.95;;;11.15;;
25946;SDS011;13745;51.470;9.894;2023-06-22T01:27:56;26.02;;;12.63;;
25946;SDS011;13745;51.470;9.894;2023-06-22T01:30:49;22.98;;;12.85;;
25946;SDS011;13745;51.470;9.894;2023-06-22T01:33:50;16.90;;;11.35;;
25946;SDS011;13745;51.470;9.894;2023-06-22T01:36:38;18.70;;;12.73;;
25946;SDS011;13745;51.470;9.894;2023-06-22T01:39:24;23.08;;;12.45;;
25946;SDS011;13745;51.470;9.894;2023-06-22T01:42:10;28.83;;;13.73;;
25946;SDS011;13745;51.470;9.894;2023-06-22T01:44:58;27.42;;;13.50;;
25946;SDS011;13745;51.470;9.894;2023-06-22T01:47:45;29.63;;;14.55;;
25946;SDS011;13745;51.470;9.894;2023-06-22T01:50:32;33.10;;;15.43;;
25946;SDS011;13745;51.470;9.894;2023-06-22T01:53:18;36.08;;;14.68;;
25946;SDS011;13745;51.470;9.894;2023-06-22T01:56:03;43.50;;;15.38;;
25946;SDS011;13745;51.470;9.894;2023-06-22T01:58:49;45.60;;;16.13;;
25946;SDS011;13745;51.470;9.894;2023-06-22T02:01:41;49.05;;;16.45;;
25946;SDS011;13745;51.470;9.894;2023-06-22T02:04:30;56.10;;;17.58;;
25946;SDS011;13745;51.470;9.894;2023-06-22T02:07:19;26.23;;;16.25;;
25946;SDS011;13745;51.470;9.894;2023-06-22T02:10:07;50.50;;;19.17;;
25946;SDS011;13745;51.470;9.894;2023-06-22T02:12:56;33.63;;;18.73;;
25946;SDS011;13745;51.470;9.894;2023-06-22T02:15:43;43.35;;;17.02;;
25946;SDS011;13745;51.470;9.894;2023-06-22T02:18:29;69.65;;;19.98;;
25946;SDS011;13745;51.470;9.894;2023-06-22T02:21:16;56.15;;;19.73;;
25946;SDS011;13745;51.470;9.894;2023-06-22T02:24:02;64.10;;;21.10;;
25946;SDS011;13745;51.470;9.894;2023-06-22T02:26:48;40.97;;;19.02;;
25946;SDS011;13745;51.470;9.894;2023-06-22T02:29:33;40.55;;;19.40;;
25946;SDS011;13745;51.470;9.894;2023-06-22T02:32:19;35.53;;;21.42;;
25946;SDS011;13745;51.470;9.894;2023-06-22T02:35:05;27.95;;;20.17;;
25946;SDS011;13745;51.470;9.894;2023-06-22T02:37:52;26.90;;;20.27;;
25946;SDS011;13745;51.470;9.894;2023-06-22T02:40:37;24.95;;;20.05;;
25946;SDS011;13745;51.470;9.894;2023-06-22T02:43:22;30.75;;;20.08;;
25946;SDS011;13745;51.470;9.894;2023-06-22T02:46:07;23.40;;;18.52;;
25946;SDS011;13745;51.470;9.894;2023-06-22T02:48:52;25.98;;;18.00;;
25946;SDS011;13745;51.470;9.894;2023-06-22T02:51:38;20.85;;;17.45;;
25946;SDS011;13745;51.470;9.894;2023-06-22T02:54:26;26.88;;;17.67;;
25946;SDS011;13745;51.470;9.894;2023-06-22T02:57:12;17.40;;;15.52;;
25946;SDS011;13745;51.470;9.894;2023-06-22T02:59:59;20.27;;;15.90;;
25946;SDS011;13745;51.470;9.894;2023-06-22T03:02:45;20.98;;;16.25;;
25946;SDS011;13745;51.470;9.894;2023-06-22T03:05:30;21.52;;;17.30;;
25946;SDS011;13745;51.470;9.894;2023-06-22T03:08:17;20.20;;;16.38;;
25946;SDS011;13745;51.470;9.894;2023-06-22T03:11:03;20.02;;;15.35;;
25946;SDS011;13745;51.470;9.894;2023-06-22T03:13:48;19.77;;;15.48;;
25946;SDS011;13745;51.470;9.894;2023-06-22T03:16:35;18.55;;;15.95;;
25946;SDS011;13745;51.470;9.894;2023-06-22T03:19:21;21.52;;;16.40;;
25946;SDS011;13745;51.470;9.894;2023-06-22T03:22:06;17.27;;;15.30;;
25946;SDS011;13745;51.470;9.894;2023-06-22T03:24:51;16.33;;;14.02;;
25946;SDS011;13745;51.470;9.894;2023-06-22T03:27:37;16.40;;;14.45;;
25946;SDS011;13745;51.470;9.894;2023-06-22T03:30:24;18.20;;;15.20;;
25946;SDS011;13745;51.470;9.894;2023-06-22T03:33:09;15.55;;;13.95;;
25946;SDS011;13745;51.470;9.894;2023-06-22T03:35:54;15.27;;;13.75;;
25946;SDS011;13745;51.470;9.894;2023-06-22T03:38:39;14.68;;;13.23;;
25946;SDS011;13745;51.470;9.894;2023-06-22T03:41:26;15.93;;;13.73;;
25946;SDS011;13745;51.470;9.894;2023-06-22T03:44:12;15.35;;;13.75;;
25946;SDS011;13745;51.470;9.894;2023-06-22T03:46:57;14.07;;;12.65;;
25946;SDS011;13745;51.470;9.894;2023-06-22T03:49:42;15.73;;;13.32;;
25946;SDS011;13745;51.470;9.894;2023-06-22T03:52:26;17.17;;;13.52;;
25946;SDS011;13745;51.470;9.894;2023-06-22T03:55:12;18.42;;;14.73;;
25946;SDS011;13745;51.470;9.894;2023-06-22T03:57:57;17.98;;;13.60;;
25946;SDS011;13745;51.470;9.894;2023-06-22T04:00:50;15.40;;;13.70;;
25946;SDS011;13745;51.470;9.894;2023-06-22T04:03:36;18.02;;;15.18;;
25946;SDS011;13745;51.470;9.894;2023-06-22T04:06:21;18.02;;;13.80;;
25946;SDS011;13745;51.470;9.894;2023-06-22T04:09:07;21.23;;;15.85;;
25946;SDS011;13745;51.470;9.894;2023-06-22T04:11:52;20.50;;;16.58;;
25946;SDS011;13745;51.470;9.894;2023-06-22T04:14:37;21.85;;;15.93;;
25946;SDS011;13745;51.470;9.894;2023-06-22T04:17:23;25.67;;;17.13;;
25946;SDS011;13745;51.470;9.894;2023-06-22T04:20:09;27.80;;;18.08;;
25946;SDS011;13745;51.470;9.894;2023-06-22T04:22:54;27.52;;;16.42;;
25946;SDS011;13745;51.470;9.894;2023-06-22T04:25:40;23.83;;;17.40;;
25946;SDS011;13745;51.470;9.894;2023-06-22T04:28:25;28.10;;;17.45;;
25946;SDS011;13745;51.470;9.894;2023-06-22T04:31:09;20.60;;;16.13;;
25946;SDS011;13745;51.470;9.894;2023-06-22T04:33:57;18.30;;;15.63;;
25946;SDS011;13745;51.470;9.894;2023-06-22T04:39:33;27.02;;;15.82;;
25946;SDS011;13745;51.470;9.894;2023-06-22T04:42:19;22.55;;;16.10;;
25946;SDS011;13745;51.470;9.894;2023-06-22T04:45:05;21.05;;;15.38;;
25946;SDS011;13745;51.470;9.894;2023-06-22T04:47:50;29.13;;;17.70;;
25946;SDS011;13745;51.470;9.894;2023-06-22T04:50:37;28.02;;;16.33;;
25946;SDS011;13745;51.470;9.894;2023-06-22T04:53:22;22.25;;;16.35;;
25946;SDS011;13745;51.470;9.894;2023-06-22T04:56:13;20.80;;;15.85;;
25946;SDS011;13745;51.470;9.894;2023-06-22T04:58:59;21.27;;;16.65;;
25946;SDS011;13745;51.470;9.894;2023-06-22T05:01:44;31.35;;;16.30;;
25946;SDS011;13745;51.470;9.894;2023-06-22T05:04:29;27.60;;;15.93;;
25946;SDS011;13745;51.470;9.894;2023-06-22T05:07:17;27.90;;;15.27;;
25946;SDS011;13745;51.470;9.894;2023-06-22T05:10:02;22.10;;;15.45;;
25946;SDS011;13745;51.470;9.894;2023-06-22T05:12:48;23.58;;;16.08;;
25946;SDS011;13745;51.470;9.894;2023-06-22T05:15:33;23.17;;;14.73;;
25946;SDS011;13745;51.470;9.894;2023-06-22T05:18:23;22.67;;;15.45;;
25946;SDS011;13745;51.470;9.894;2023-06-22T05:21:08;21.55;;;15.90;;
25946;SDS011;13745;51.470;9.894;2023-06-22T05:23:55;25.90;;;16.50;;
25946;SDS011;13745;51.470;9.894;2023-06-22T05:26:43;25.63;;;16.98;;
25946;SDS011;13745;51.470;9.894;2023-06-22T05:29:28;23.63;;;17.33;;
25946;SDS011;13745;51.470;9.894;2023-06-22T05:32:14;25.02;;;17.70;;
25946;SDS011;13745;51.470;9.894;2023-06-22T05:34:59;20.42;;;16.30;;
25946;SDS011;13745;51.470;9.894;2023-06-22T05:37:44;24.08;;;17.27;;
25946;SDS011;13745;51.470;9.894;2023-06-22T05:40:30;25.88;;;16.85;;
25946;SDS011;13745;51.470;9.894;2023-06-22T05:43:15;16.45;;;14.70;;
25946;SDS011;13745;51.470;9.894;2023-06-22T05:46:00;22.63;;;15.73;;
25946;SDS011;13745;51.470;9.894;2023-06-22T05:48:46;23.35;;;16.13;;
25946;SDS011;13745;51.470;9.894;2023-06-22T05:51:31;20.40;;;15.77;;
25946;SDS011;13745;51.470;9.894;2023-06-22T05:54:16;18.65;;;15.45;;
25946;SDS011;13745;51.470;9.894;2023-06-22T05:57:03;18.42;;;15.10;;
25946;SDS011;13745;51.470;9.894;2023-06-22T05:59:48;21.60;;;15.02;;
25946;SDS011;13745;51.470;9.894;2023-06-22T06:02:33;28.42;;;19.23;;
25946;SDS011;13745;51.470;9.894;2023-06-22T06:05:19;26.00;;;19.50;;
25946;SDS011;13745;51.470;9.894;2023-06-22T06:08:04;23.83;;;19.23;;
25946;SDS011;13745;51.470;9.894;2023-06-22T06:10:51;27.77;;;22.25;;
25946;SDS011;13745;51.470;9.894;2023-06-22T06:13:40;28.40;;;20.10;;
25946;SDS011;13745;51.470;9.894;2023-06-22T06:16:25;26.83;;;21.25;;
25946;SDS011;13745;51.470;9.894;2023-06-22T06:19:11;25.85;;;20.90;;
25946;SDS011;13745;51.470;9.894;2023-06-22T06:21:56;28.98;;;20.92;;
25946;SDS011;13745;51.470;9.894;2023-06-22T06:24:41;27.50;;;22.70;;
25946;SDS011;13745;51.470;9.894;2023-06-22T06:27:26;36.47;;;23.92;;
25946;SDS011;13745;51.470;9.894;2023-06-22T06:30:14;29.35;;;23.80;;
25946;SDS011;13745;51.470;9.894;2023-06-22T06:33:00;30.60;;;23.33;;
25946;SDS011;13745;51.470;9.894;2023-06-22T06:35:45;32.15;;;22.63;;
25946;SDS011;13745;51.470;9.894;2023-06-22T06:38:30;29.50;;;23.38;;
25946;SDS011;13745;51.470;9.894;2023-06-22T06:41:15;29.63;;;24.05;;
25946;SDS011;13745;51.470;9.894;2023-06-22T06:44:01;34.90;;;24.27;;
25946;SDS011;13745;51.470;9.894;2023-06-22T06:46:47;35.47;;;25.40;;
25946;SDS011;13745;51.470;9.894;2023-06-22T06:49:33;34.17;;;24.45;;
25946;SDS011;13745;51.470;9.894;2023-06-22T06:52:18;33.30;;;24.23;;
25946;SDS011;13745;51.470;9.894;2023-06-22T06:55:04;38.08;;;25.02;;
25946;SDS011;13745;51.470;9.894;2023-06-22T06:57:52;30.88;;;23.98;;
25946;SDS011;13745;51.470;9.894;2023-06-22T07:00:37;36.90;;;25.73;;
25946;SDS011;13745;51.470;9.894;2023-06-22T07:03:23;34.42;;;25.38;;
25946;SDS011;13745;51.470;9.894;2023-06-22T07:06:08;39.90;;;24.90;;
25946;SDS011;13745;51.470;9.894;2023-06-22T07:08:53;30.45;;;24.25;;
25946;SDS011;13745;51.470;9.894;2023-06-22T07:11:39;30.08;;;23.83;;
25946;SDS011;13745;51.470;9.894;2023-06-22T07:14:24;25.45;;;21.13;;
25946;SDS011;13745;51.470;9.894;2023-06-22T07:17:09;26.45;;;21.08;;
25946;SDS011;13745;51.470;9.894;2023-06-22T07:19:55;28.52;;;21.95;;
25946;SDS011;13745;51.470;9.894;2023-06-22T07:22:41;27.17;;;21.17;;
25946;SDS011;13745;51.470;9.894;2023-06-22T07:25:28;30.65;;;20.58;;
25946;SDS011;13745;51.470;9.894;2023-06-22T07:28:13;22.80;;;19.52;;
25946;SDS011;13745;51.470;9.894;2023-06-22T07:30:58;24.27;;;19.40;;
25946;SDS011;13745;51.470;9.894;2023-06-22T07:33:43;23.67;;;18.90;;
25946;SDS011;13745;51.470;9.894;2023-06-22T07:36:29;24.58;;;17.75;;
25946;SDS011;13745;51.470;9.894;2023-06-22T07:39:14;20.23;;;17.00;;
25946;SDS011;13745;51.470;9.894;2023-06-22T07:42:00;23.15;;;17.73;;
25946;SDS011;13745;51.470;9.894;2023-06-22T07:44:45;22.60;;;16.63;;
25946;SDS011;13745;51.470;9.894;2023-06-22T07:47:30;20.45;;;17.35;;
25946;SDS011;13745;51.470;9.894;2023-06-22T07:50:19;23.83;;;17.10;;
25946;SDS011;13745;51.470;9.894;2023-06-22T07:53:05;19.40;;;16.73;;
25946;SDS011;13745;51.470;9.894;2023-06-22T07:55:50;19.33;;;17.17;;
25946;SDS011;13745;51.470;9.894;2023-06-22T07:58:35;18.70;;;16.73;;
25946;SDS011;13745;51.470;9.894;2023-06-22T08:01:20;22.38;;;16.10;;
25946;SDS011;13745;51.470;9.894;2023-06-22T08:04:05;17.63;;;14.90;;
25946;SDS011;13745;51.470;9.894;2023-06-22T08:06:50;18.80;;;15.45;;
25946;SDS011;13745;51.470;9.894;2023-06-22T08:09:36;15.50;;;14.00;;
25946;SDS011;13745;51.470;9.894;2023-06-22T08:12:21;23.63;;;16.35;;
25946;SDS011;13745;51.470;9.894;2023-06-22T08:15:06;16.40;;;14.65;;
25946;SDS011;13745;51.470;9.894;2023-06-22T08:17:52;19.90;;;15.13;;
25946;SDS011;13745;51.470;9.894;2023-06-22T08:20:37;14.77;;;13.23;;
25946;SDS011;13745;51.470;9.894;2023-06-22T08:23:22;19.08;;;15.05;;
25946;SDS011;13745;51.470;9.894;2023-06-22T08:26:09;19.00;;;13.02;;
25946;SDS011;13745;51.470;9.894;2023-06-22T08:28:54;15.77;;;14.07;;
25946;SDS011;13745;51.470;9.894;2023-06-22T08:31:39;18.55;;;13.02;;
25946;SDS011;13745;51.470;9.894;2023-06-22T08:34:24;13.57;;;12.38;;
25946;SDS011;13745;51.470;9.894;2023-06-22T08:37:11;14.23;;;11.80;;
25946;SDS011;13745;51.470;9.894;2023-06-22T08:39:56;12.20;;;10.60;;
25946;SDS011;13745;51.470;9.894;2023-06-22T08:42:43;11.35;;;10.25;;
25946;SDS011;13745;51.470;9.894;2023-06-22T08:45:28;11.70;;;10.57;;
25946;SDS011;13745;51.470;9.894;2023-06-22T08:48:13;12.88;;;11.15;;
25946;SDS011;13745;51.470;9.894;2023-06-22T08:50:58;13.30;;;9.98;;
25946;SDS011;13745;51.470;9.894;2023-06-22T08:53:43;11.80;;;10.52;;
25946;SDS011;13745;51.470;9.894;2023-06-22T08:56:28;11.65;;;10.45;;
25946;SDS011;13745;51.470;9.894;2023-06-22T08:59:15;10.75;;;9.65;;
25946;SDS011;13745;51.470;9.894;2023-06-22T09:02:00;11.40;;;10.10;;
25946;SDS011;13745;51.470;9.894;2023-06-22T09:04:45;11.30;;;9.75;;
25946;SDS011;13745;51.470;9.894;2023-06-22T09:07:30;11.73;;;10.63;;
25946;SDS011;13745;51.470;9.894;2023-06-22T09:10:15;10.93;;;9.93;;
25946;SDS011;13745;51.470;9.894;2023-06-22T09:13:00;11.40;;;10.18;;
25946;SDS011;13745;51.470;9.894;2023-06-22T09:15:46;12.50;;;10.50;;
25946;SDS011;13745;51.470;9.894;2023-06-22T09:18:31;12.60;;;11.20;;
25946;SDS011;13745;51.470;9.894;2023-06-22T09:21:16;10.65;;;9.55;;
25946;SDS011;13745;51.470;9.894;2023-06-22T09:24:01;13.93;;;9.70;;
25946;SDS011;13745;51.470;9.894;2023-06-22T09:26:47;11.27;;;10.10;;
25946;SDS011;13745;51.470;9.894;2023-06-22T09:29:31;11.52;;;9.85;;
25946;SDS011;13745;51.470;9.894;2023-06-22T09:32:18;12.35;;;9.75;;
25946;SDS011;13745;51.470;9.894;2023-06-22T09:35:04;11.23;;;10.05;;
25946;SDS011;13745;51.470;9.894;2023-06-22T09:37:50;11.23;;;10.20;;
25946;SDS011;13745;51.470;9.894;2023-06-22T09:40:35;10.95;;;8.75;;
25946;SDS011;13745;51.470;9.894;2023-06-22T09:43:23;12.32;;;9.23;;
25946;SDS011;13745;51.470;9.894;2023-06-22T09:46:08;11.77;;;9.63;;
25946;SDS011;13745;51.470;9.894;2023-06-22T09:48:55;11.10;;;10.02;;
25946;SDS011;13745;51.470;9.894;2023-06-22T09:51:40;9.38;;;8.57;;
25946;SDS011;13745;51.470;9.894;2023-06-22T09:54:25;13.00;;;9.32;;
25946;SDS011;13745;51.470;9.894;2023-06-22T09:57:10;12.80;;;9.73;;
25946;SDS011;13745;51.470;9.894;2023-06-22T09:59:55;10.63;;;9.13;;
25946;SDS011;13745;51.470;9.894;2023-06-22T10:02:41;10.65;;;9.65;;
25946;SDS011;13745;51.470;9.894;2023-06-22T10:05:27;9.30;;;8.50;;
25946;SDS011;13745;51.470;9.894;2023-06-22T10:08:12;10.27;;;9.15;;
25946;SDS011;13745;51.470;9.894;2023-06-22T10:10:57;9.85;;;8.95;;
25946;SDS011;13745;51.470;9.894;2023-06-22T10:13:42;9.90;;;9.10;;
25946;SDS011;13745;51.470;9.894;2023-06-22T10:16:30;12.27;;;9.32;;
25946;SDS011;13745;51.470;9.894;2023-06-22T10:19:15;11.20;;;9.48;;
25946;SDS011;13745;51.470;9.894;2023-06-22T10:22:01;11.07;;;9.68;;
25946;SDS011;13745;51.470;9.894;2023-06-22T10:24:47;10.13;;;9.20;;
25946;SDS011;13745;51.470;9.894;2023-06-22T10:27:32;10.48;;;8.60;;
25946;SDS011;13745;51.470;9.894;2023-06-22T10:30:17;10.90;;;8.65;;
25946;SDS011;13745;51.470;9.894;2023-06-22T10:33:02;11.23;;;9.25;;
25946;SDS011;13745;51.470;9.894;2023-06-22T10:35:47;8.98;;;8.00;;
25946;SDS011;13745;51.470;9.894;2023-06-22T10:38:33;9.07;;;8.27;;
25946;SDS011;13745;51.470;9.894;2023-06-22T10:41:19;8.75;;;7.95;;
25946;SDS011;13745;51.470;9.894;2023-06-22T10:44:04;9.80;;;7.65;;
25946;SDS011;13745;51.470;9.894;2023-06-22T10:46:49;8.65;;;7.40;;
25946;SDS011;13745;51.470;9.894;2023-06-22T10:49:34;8.45;;;7.47;;
25946;SDS011;13745;51.470;9.894;2023-06-22T10:52:19;7.50;;;6.88;;
25946;SDS011;13745;51.470;9.894;2023-06-22T10:55:06;8.73;;;7.00;;
25946;SDS011;13745;51.470;9.894;2023-06-22T10:57:52;7.93;;;6.65;;
25946;SDS011;13745;51.470;9.894;2023-06-22T11:00:37;6.85;;;6.15;;
25946;SDS011;13745;51.470;9.894;2023-06-22T11:03:22;6.68;;;6.07;;
25946;SDS011;13745;51.470;9.894;2023-06-22T11:06:07;7.68;;;6.63;;
25946;SDS011;13745;51.470;9.894;2023-06-22T11:08:52;7.38;;;6.30;;
25946;SDS011;13745;51.470;9.894;2023-06-22T11:11:39;9.02;;;6.45;;
25946;SDS011;13745;51.470;9.894;2023-06-22T11:14:24;6.03;;;5.53;;
25946;SDS011;13745;51.470;9.894;2023-06-22T11:17:10;6.88;;;6.28;;
25946;SDS011;13745;51.470;9.894;2023-06-22T11:19:55;7.13;;;6.20;;
25946;SDS011;13745;51.470;9.894;2023-06-22T11:22:40;5.88;;;5.38;;
25946;SDS011;13745;51.470;9.894;2023-06-22T11:25:25;6.65;;;5.85;;
25946;SDS011;13745;51.470;9.894;2023-06-22T11:28:11;6.35;;;5.70;;
25946;SDS011;13745;51.470;9.894;2023-06-22T11:30:57;7.60;;;5.80;;
25946;SDS011;13745;51.470;9.894;2023-06-22T11:33:42;6.45;;;5.65;;
25946;SDS011;13745;51.470;9.894;2023-06-22T11:36:29;6.93;;;5.88;;
25946;SDS011;13745;51.470;9.894;2023-06-22T11:39:16;6.43;;;5.82;;
25946;SDS011;13745;51.470;9.894;2023-06-22T11:42:01;5.93;;;5.40;;
25946;SDS011;13745;51.470;9.894;2023-06-22T11:44:48;6.20;;;5.68;;
25946;SDS011;13745;51.470;9.894;2023-06-22T11:47:33;5.88;;;5.38;;
25946;SDS011;13745;51.470;9.894;2023-06-22T11:50:18;6.68;;;5.82;;
25946;SDS011;13745;51.470;9.894;2023-06-22T11:53:03;6.10;;;5.50;;
25946;SDS011;13745;51.470;9.894;2023-06-22T11:55:48;5.90;;;5.40;;
25946;SDS011;13745;51.470;9.894;2023-06-22T11:58:34;10.35;;;5.65;;
25946;SDS011;13745;51.470;9.894;2023-06-22T12:01:20;6.70;;;5.43;;
25946;SDS011;13745;51.470;9.894;2023-06-22T12:04:05;5.75;;;5.22;;
25946;SDS011;13745;51.470;9.894;2023-06-22T12:06:50;6.05;;;5.45;;
25946;SDS011;13745;51.470;9.894;2023-06-22T12:09:35;7.47;;;5.57;;
25946;SDS011;13745;51.470;9.894;2023-06-22T12:12:20;5.55;;;5.05;;
25946;SDS011;13745;51.470;9.894;2023-06-22T12:15:05;6.07;;;5.47;;
25946;SDS011;13745;51.470;9.894;2023-06-22T12:17:52;5.45;;;5.00;;
25946;SDS011;13745;51.470;9.894;2023-06-22T12:20:38;6.78;;;5.22;;
25946;SDS011;13745;51.470;9.894;2023-06-22T12:23:22;6.03;;;5.43;;
25946;SDS011;13745;51.470;9.894;2023-06-22T12:26:07;5.10;;;4.63;;
25946;SDS011;13745;51.470;9.894;2023-06-22T12:28:52;5.63;;;4.85;;
25946;SDS011;13745;51.470;9.894;2023-06-22T12:31:37;6.13;;;5.57;;
25946;SDS011;13745;51.470;9.894;2023-06-22T12:34:24;6.43;;;5.50;;
25946;SDS011;13745;51.470;9.894;2023-06-22T12:37:10;5.60;;;5.10;;
25946;SDS011;13745;51.470;9.894;2023-06-22T12:39:55;5.15;;;4.75;;
25946;SDS011;13745;51.470;9.894;2023-06-22T12:42:40;6.28;;;5.30;;
25946;SDS011;13745;51.470;9.894;2023-06-22T12:45:26;8.02;;;5.70;;
25946;SDS011;13745;51.470;9.894;2023-06-22T12:48:12;7.88;;;5.50;;
25946;SDS011;13745;51.470;9.894;2023-06-22T12:50:58;5.93;;;5.43;;
25946;SDS011;13745;51.470;9.894;2023-06-22T12:53:44;6.10;;;5.50;;
25946;SDS011;13745;51.470;9.894;2023-06-22T12:56:28;6.43;;;5.93;;
25946;SDS011;13745;51.470;9.894;2023-06-22T12:59:14;6.22;;;5.60;;
25946;SDS011;13745;51.470;9.894;2023-06-22T13:02:01;6.43;;;5.93;;
25946;SDS011;13745;51.470;9.894;2023-06-22T13:04:45;8.73;;;6.57;;
25946;SDS011;13745;51.470;9.894;2023-06-22T13:07:32;6.93;;;6.15;;
25946;SDS011;13745;51.470;9.894;2023-06-22T13:10:17;8.43;;;6.10;;
25946;SDS011;13745;51.470;9.894;2023-06-22T13:13:02;6.95;;;6.25;;
25946;SDS011;13745;51.470;9.894;2023-06-22T13:15:47;9.25;;;5.82;;
25946;SDS011;13745;51.470;9.894;2023-06-22T13:18:32;7.72;;;6.72;;
25946;SDS011;13745;51.470;9.894;2023-06-22T13:21:19;7.32;;;6.63;;
25946;SDS011;13745;51.470;9.894;2023-06-22T13:24:06;7.15;;;6.50;;
25946;SDS011;13745;51.470;9.894;2023-06-22T13:26:51;8.15;;;6.40;;
25946;SDS011;13745;51.470;9.894;2023-06-22T13:29:36;7.85;;;7.15;;
25946;SDS011;13745;51.470;9.894;2023-06-22T13:32:21;8.15;;;7.22;;
25946;SDS011;13745;51.470;9.894;2023-06-22T13:35:06;8.40;;;7.00;;
25946;SDS011;13745;51.470;9.894;2023-06-22T13:37:51;9.45;;;6.72;;
25946;SDS011;13745;51.470;9.894;2023-06-22T13:40:38;7.85;;;7.15;;
25946;SDS011;13745;51.470;9.894;2023-06-22T13:43:23;7.53;;;6.63;;
25946;SDS011;13745;51.470;9.894;2023-06-22T13:46:09;8.90;;;6.60;;
25946;SDS011;13745;51.470;9.894;2023-06-22T13:48:55;8.80;;;7.25;;
25946;SDS011;13745;51.470;9.894;2023-06-22T13:51:39;8.75;;;7.82;;
25946;SDS011;13745;51.470;9.894;2023-06-22T13:54:25;10.40;;;7.40;;
25946;SDS011;13745;51.470;9.894;2023-06-22T13:57:11;8.10;;;6.90;;
25946;SDS011;13745;51.470;9.894;2023-06-22T13:59:56;10.40;;;7.65;;
25946;SDS011;13745;51.470;9.894;2023-06-22T14:02:41;8.57;;;7.10;;
25946;SDS011;13745;51.470;9.894;2023-06-22T14:05:26;9.82;;;7.95;;
25946;SDS011;13745;51.470;9.894;2023-06-22T14:08:12;8.65;;;7.70;;
25946;SDS011;13745;51.470;9.894;2023-06-22T14:10:58;7.55;;;6.85;;
25946;SDS011;13745;51.470;9.894;2023-06-22T14:13:45;8.05;;;7.25;;
25946;SDS011;13745;51.470;9.894;2023-06-22T14:16:30;7.70;;;6.95;;
25946;SDS011;13745;51.470;9.894;2023-06-22T14:19:16;9.98;;;7.80;;
25946;SDS011;13745;51.470;9.894;2023-06-22T14:22:02;8.32;;;7.60;;
25946;SDS011;13745;51.470;9.894;2023-06-22T14:24:48;8.00;;;7.30;;
25946;SDS011;13745;51.470;9.894;2023-06-22T14:27:33;9.75;;;7.38;;
25946;SDS011;13745;51.470;9.894;2023-06-22T14:30:20;8.77;;;7.18;;
25946;SDS011;13745;51.470;9.894;2023-06-22T14:33:05;8.65;;;7.90;;
25946;SDS011;13745;51.470;9.894;2023-06-22T14:35:50;8.85;;;8.02;;
25946;SDS011;13745;51.470;9.894;2023-06-22T14:38:35;7.70;;;7.00;;
25946;SDS011;13745;51.470;9.894;2023-06-22T14:41:20;8.40;;;7.60;;
25946;SDS011;13745;51.470;9.894;2023-06-22T14:44:05;9.10;;;8.20;;
25946;SDS011;13745;51.470;9.894;2023-06-22T14:46:52;8.43;;;7.75;;
25946;SDS011;13745;51.470;9.894;2023-06-22T14:49:37;12.75;;;8.38;;
25946;SDS011;13745;51.470;9.894;2023-06-22T14:52:22;8.85;;;8.05;;
25946;SDS011;13745;51.470;9.894;2023-06-22T14:55:07;9.40;;;8.55;;
25946;SDS011;13745;51.470;9.894;2023-06-22T14:57:53;10.00;;;8.13;;
25946;SDS011;13745;51.470;9.894;2023-06-22T15:00:38;9.73;;;7.63;;
25946;SDS011;13745;51.470;9.894;2023-06-22T15:03:24;9.27;;;8.32;;
25946;SDS011;13745;51.470;9.894;2023-06-22T15:06:12;10.45;;;7.75;;
25946;SDS011;13745;51.470;9.894;2023-06-22T15:08:57;6.85;;;4.20;;
25946;SDS011;13745;51.470;9.894;2023-06-22T15:11:42;10.45;;;2.33;;
25946;SDS011;13745;51.470;9.894;2023-06-22T15:14:27;5.07;;;1.88;;
25946;SDS011;13745;51.470;9.894;2023-06-22T15:17:13;15.18;;;3.95;;
25946;SDS011;13745;51.470;9.894;2023-06-22T15:20:00;11.85;;;3.80;;
25946;SDS011;13745;51.470;9.894;2023-06-22T15:22:48;9.65;;;4.15;;
25946;SDS011;13745;51.470;9.894;2023-06-22T15:25:33;14.77;;;5.45;;
25946;SDS011;13745;51.470;9.894;2023-06-22T15:28:18;16.95;;;5.15;;
25946;SDS011;13745;51.470;9.894;2023-06-22T15:31:05;18.20;;;4.70;;
25946;SDS011;13745;51.470;9.894;2023-06-22T15:33:50;10.18;;;3.83;;
25946;SDS011;13745;51.470;9.894;2023-06-22T15:36:36;7.75;;;4.43;;
25946;SDS011;13745;51.470;9.894;2023-06-22T15:39:22;10.63;;;3.92;;
25946;SDS011;13745;51.470;9.894;2023-06-22T15:42:08;13.80;;;5.10;;
25946;SDS011;13745;51.470;9.894;2023-06-22T15:44:53;19.65;;;5.65;;
25946;SDS011;13745;51.470;9.894;2023-06-22T15:47:38;12.20;;;4.93;;
25946;SDS011;13745;51.470;9.894;2023-06-22T15:50:23;9.45;;;5.10;;
25946;SDS011;13745;51.470;9.894;2023-06-22T15:53:10;25.85;;;6.18;;
25946;SDS011;13745;51.470;9.894;2023-06-22T15:55:55;8.55;;;5.30;;
25946;SDS011;13745;51.470;9.894;2023-06-22T15:58:40;5.97;;;4.72;;
25946;SDS011;13745;51.470;9.894;2023-06-22T16:01:25;10.38;;;5.32;;
25946;SDS011;13745;51.470;9.894;2023-06-22T16:04:10;6.75;;;4.53;;
25946;SDS011;13745;51.470;9.894;2023-06-22T16:06:55;8.15;;;4.78;;
25946;SDS011;13745;51.470;9.894;2023-06-22T16:09:41;11.93;;;5.32;;
25946;SDS011;13745;51.470;9.894;2023-06-22T16:12:26;64.82;;;7.65;;
25946;SDS011;13745;51.470;9.894;2023-06-22T16:15:12;9.73;;;4.78;;
25946;SDS011;13745;51.470;9.894;2023-06-22T16:17:58;8.10;;;4.88;;
25946;SDS011;13745;51.470;9.894;2023-06-22T16:20:43;9.25;;;4.90;;
25946;SDS011;13745;51.470;9.894;2023-06-22T16:23:30;7.15;;;5.20;;